createdAt,value
2019-05-23T00:01:39.176Z,97.20
2019-05-23T00:04:20.213Z,97.20
2019-05-23T00:06:58.205Z,97.20
2019-05-23T00:09:35.293Z,97.20
2019-05-23T00:12:30.569Z,97.20
2019-05-23T00:15:29.199Z,97.20
2019-05-23T00:18:06.251Z,97.20
2019-05-23T00:20:42.448Z,97.20
2019-05-23T00:23:18.632Z,97.20
2019-05-23T00:25:55.428Z,97.20
2019-05-23T00:28:32.184Z,97.20
2019-05-23T00:31:19.119Z,97.20
2019-05-23T00:33:56.656Z,97.20
2019-05-23T00:36:33.010Z,97.20
2019-05-23T00:39:09.226Z,97.20
2019-05-23T00:41:45.934Z,97.20
2019-05-23T00:44:23.165Z,97.20
2019-05-23T00:46:59.248Z,97.20
2019-05-23T00:49:36.018Z,97.20
2019-05-23T00:52:12.183Z,97.20
2019-05-23T00:54:49.366Z,97.20
2019-05-23T00:57:28.570Z,97.20
2019-05-23T01:00:06.996Z,97.20
2019-05-23T01:02:44.822Z,97.20
2019-05-23T01:05:22.495Z,97.20
2019-05-23T01:07:59.882Z,97.20
2019-05-23T01:10:36.037Z,97.20
2019-05-23T01:13:12.921Z,97.20
2019-05-23T01:15:49.547Z,97.20
2019-05-23T01:18:26.065Z,97.20
2019-05-23T01:21:03.960Z,97.20
2019-05-23T01:23:44.497Z,97.20
2019-05-23T01:26:21.017Z,97.20
2019-05-23T01:28:57.464Z,97.20
2019-05-23T01:31:35.284Z,97.20
2019-05-23T01:34:11.833Z,97.20
2019-05-23T01:36:48.262Z,97.20
2019-05-23T01:39:24.942Z,97.20
2019-05-23T01:42:01.540Z,97.20
2019-05-23T01:44:37.646Z,97.20
2019-05-23T01:47:14.054Z,97.20
2019-05-23T01:49:51.098Z,97.20
2019-05-23T01:52:27.313Z,97.20
2019-05-23T01:55:03.487Z,97.20
2019-05-23T01:57:40.472Z,97.20
2019-05-23T02:00:18.100Z,97.20
2019-05-23T02:02:54.787Z,97.20
2019-05-23T02:05:31.054Z,97.20
2019-05-23T02:08:10.729Z,97.20
2019-05-23T02:10:48.032Z,97.20
2019-05-23T02:13:24.279Z,97.20
2019-05-23T02:16:01.044Z,97.20
2019-05-23T02:18:37.887Z,97.20
2019-05-23T02:21:16.008Z,97.20
2019-05-23T02:23:52.424Z,97.20
2019-05-23T02:26:28.970Z,97.20
2019-05-23T02:29:06.813Z,97.20
2019-05-23T02:31:43.118Z,97.20
2019-05-23T02:34:20.697Z,97.20
2019-05-23T02:36:58.524Z,97.20
2019-05-23T02:39:52.617Z,97.20
2019-05-23T02:42:30.614Z,97.20
2019-05-23T02:45:09.982Z,97.20
2019-05-23T02:47:49.246Z,97.20
2019-05-23T02:50:35.164Z,97.20
2019-05-23T02:53:14.318Z,97.20
2019-05-23T02:55:54.393Z,97.20
2019-05-23T02:58:35.225Z,97.20
2019-05-23T03:01:25.049Z,97.20
2019-05-23T03:04:10.182Z,97.20
2019-05-23T03:06:46.395Z,97.20
2019-05-23T03:09:26.475Z,97.20
2019-05-23T03:12:04.278Z,97.20
2019-05-23T03:14:42.183Z,97.20
2019-05-23T03:17:20.693Z,97.20
2019-05-23T03:20:01.432Z,97.20
2019-05-23T03:22:58.688Z,97.20
2019-05-23T03:25:39.708Z,97.20
2019-05-23T03:28:18.067Z,97.20
2019-05-23T03:31:25.333Z,97.20
2019-05-23T03:33:37.077Z,97.20
2019-05-23T03:36:13.684Z,97.20
2019-05-23T03:38:51.357Z,97.20
2019-05-23T03:41:28.405Z,97.20
2019-05-23T03:44:07.317Z,97.20
2019-05-23T03:46:45.444Z,97.20
2019-05-23T03:49:22.342Z,97.20
2019-05-23T03:51:58.746Z,97.20
2019-05-23T03:54:36.567Z,97.20
2019-05-23T03:57:13.215Z,97.20
2019-05-23T03:59:50.649Z,97.20
2019-05-23T04:02:26.965Z,97.20
2019-05-23T04:05:03.345Z,97.20
2019-05-23T04:07:39.437Z,97.20
2019-05-23T04:10:15.877Z,97.20
2019-05-23T04:12:52.306Z,97.20
2019-05-23T04:15:29.071Z,97.20
2019-05-23T04:18:05.674Z,97.20
2019-05-23T04:20:42.083Z,97.20
2019-05-23T04:23:18.167Z,97.20
2019-05-23T04:25:54.786Z,97.20
2019-05-23T04:28:31.204Z,97.20
2019-05-23T04:31:07.682Z,97.20
2019-05-23T04:33:46.521Z,97.20
2019-05-23T04:36:23.589Z,97.20
2019-05-23T04:39:00.077Z,97.20
2019-05-23T04:41:36.353Z,97.20
2019-05-23T04:44:14.271Z,97.20
2019-05-23T04:46:50.581Z,97.20
2019-05-23T04:49:27.276Z,97.20
2019-05-23T04:52:04.821Z,97.20
2019-05-23T04:54:41.722Z,97.20
2019-05-23T04:57:23.474Z,97.20
2019-05-23T05:00:02.266Z,97.20
2019-05-23T05:02:39.957Z,97.20
2019-05-23T05:05:16.812Z,97.20
2019-05-23T05:07:53.044Z,97.20
2019-05-23T05:10:30.948Z,97.20
2019-05-23T05:13:07.278Z,97.20
2019-05-23T05:15:43.930Z,97.20
2019-05-23T05:18:20.830Z,97.20
2019-05-23T05:20:57.269Z,97.20
2019-05-23T05:23:33.524Z,97.20
2019-05-23T05:26:12.725Z,97.20
2019-05-23T05:28:49.038Z,97.20
2019-05-23T05:31:25.304Z,97.20
2019-05-23T05:34:01.586Z,97.20
2019-05-23T05:36:37.823Z,97.20
2019-05-23T05:39:15.770Z,97.00
2019-05-23T05:41:52.627Z,96.80
2019-05-23T05:44:28.957Z,97.00
2019-05-23T05:47:06.332Z,96.50
2019-05-23T05:49:42.830Z,96.00
2019-05-23T05:52:19.769Z,94.40
2019-05-23T05:54:56.016Z,93.90
2019-05-23T05:57:32.218Z,94.10
2019-05-23T06:00:17.422Z,92.80
2019-05-23T06:03:04.511Z,94.80
2019-05-23T06:05:46.708Z,94.10
2019-05-23T06:08:25.387Z,92.30
2019-05-23T06:11:01.897Z,91.60
2019-05-23T06:13:38.243Z,90.50
2019-05-23T06:16:14.729Z,90.70
2019-05-23T06:18:50.974Z,90.70
2019-05-23T06:21:28.864Z,89.30
2019-05-23T06:24:05.590Z,88.60
2019-05-23T06:26:43.444Z,90.50
2019-05-23T06:29:20.154Z,90.70
2019-05-23T06:31:57.629Z,89.90
2019-05-23T06:34:34.899Z,90.20
2019-05-23T06:37:12.315Z,89.10
2019-05-23T06:39:48.810Z,88.30
2019-05-23T06:42:25.759Z,87.00
2019-05-23T06:45:02.378Z,86.50
2019-05-23T06:47:39.727Z,88.20
2019-05-23T06:50:19.354Z,86.30
2019-05-23T06:52:55.877Z,83.70
2019-05-23T06:55:32.431Z,83.00
2019-05-23T06:58:08.895Z,80.80
2019-05-23T07:00:45.727Z,80.70
2019-05-23T07:03:22.247Z,80.90
2019-05-23T07:05:59.000Z,78.80
2019-05-23T07:08:35.444Z,76.70
2019-05-23T07:11:11.878Z,76.40
2019-05-23T07:13:48.295Z,76.90
2019-05-23T07:16:24.575Z,76.10
2019-05-23T07:19:00.771Z,74.50
2019-05-23T07:21:37.145Z,74.60
2019-05-23T07:24:13.682Z,75.10
2019-05-23T07:26:50.023Z,71.00
2019-05-23T07:29:26.574Z,72.60
2019-05-23T07:32:05.158Z,73.30
2019-05-23T07:34:41.495Z,73.00
2019-05-23T07:37:17.825Z,72.60
2019-05-23T07:39:54.083Z,73.40
2019-05-23T07:42:30.517Z,70.90
2019-05-23T07:45:08.985Z,71.50
2019-05-23T07:47:45.281Z,70.50
2019-05-23T07:50:21.441Z,70.60
2019-05-23T07:52:58.068Z,71.40
2019-05-23T07:55:42.014Z,72.40
2019-05-23T07:58:18.921Z,71.30
2019-05-23T08:01:02.551Z,71.30
2019-05-23T08:03:45.131Z,71.70
2019-05-23T08:06:21.971Z,72.90
2019-05-23T08:08:58.929Z,73.80
2019-05-23T08:11:35.325Z,73.60
2019-05-23T08:14:12.317Z,69.30
2019-05-23T08:16:49.770Z,69.00
2019-05-23T08:19:26.439Z,71.40
2019-05-23T08:22:03.015Z,70.20
2019-05-23T08:24:39.430Z,71.90
2019-05-23T08:27:15.948Z,70.40
2019-05-23T08:29:52.687Z,71.00
2019-05-23T08:32:28.949Z,69.40
2019-05-23T08:35:07.035Z,67.30
2019-05-23T08:37:43.365Z,67.70
2019-05-23T08:40:19.646Z,69.20
2019-05-23T08:42:55.900Z,67.90
2019-05-23T08:45:32.853Z,68.00
2019-05-23T08:48:09.117Z,66.10
2019-05-23T08:50:45.349Z,66.80
2019-05-23T08:53:21.682Z,68.30
2019-05-23T08:55:58.492Z,66.70
2019-05-23T08:58:34.610Z,66.90
2019-05-23T09:01:10.948Z,65.00
2019-05-23T09:03:47.766Z,64.50
2019-05-23T09:06:24.511Z,66.10
2019-05-23T09:09:01.370Z,66.10
2019-05-23T09:11:38.118Z,63.80
2019-05-23T09:14:14.367Z,66.00
2019-05-23T09:16:50.726Z,68.10
2019-05-23T09:19:26.990Z,67.60
2019-05-23T09:22:03.263Z,65.20
2019-05-23T09:24:39.517Z,64.20
2019-05-23T09:27:15.795Z,64.50
2019-05-23T09:29:52.145Z,64.60
2019-05-23T09:32:28.402Z,63.10
2019-05-23T09:35:19.598Z,65.30
2019-05-23T09:37:43.896Z,63.30
2019-05-23T09:40:21.628Z,64.00
2019-05-23T09:42:58.152Z,63.60
2019-05-23T09:45:34.375Z,59.70
2019-05-23T09:48:10.705Z,64.20
2019-05-23T09:50:47.803Z,61.30
2019-05-23T09:53:24.090Z,59.10
2019-05-23T09:56:00.494Z,62.90
2019-05-23T09:58:36.745Z,64.20
2019-05-23T10:01:14.047Z,63.50
2019-05-23T10:03:50.648Z,62.00
2019-05-23T10:06:26.881Z,64.40
2019-05-23T10:09:05.539Z,60.00
2019-05-23T10:11:42.014Z,60.20
2019-05-23T10:14:22.664Z,61.70
2019-05-23T10:16:58.958Z,58.60
2019-05-23T10:19:35.952Z,60.30
2019-05-23T10:22:12.169Z,59.30
2019-05-23T10:24:48.541Z,55.80
2019-05-23T10:27:25.273Z,57.80
2019-05-23T10:30:01.777Z,57.80
2019-05-23T10:32:38.016Z,57.80
2019-05-23T10:35:14.461Z,59.00
2019-05-23T10:37:51.152Z,61.20
2019-05-23T10:40:27.821Z,59.20
2019-05-23T10:43:09.070Z,57.70
2019-05-23T10:45:45.593Z,60.50
2019-05-23T10:48:22.562Z,60.90
2019-05-23T10:50:59.493Z,60.20
2019-05-23T10:53:35.799Z,59.10
2019-05-23T10:56:13.867Z,62.00
2019-05-23T10:58:50.250Z,61.00
2019-05-23T11:01:27.287Z,59.80
2019-05-23T11:04:03.720Z,61.60
2019-05-23T11:06:40.443Z,59.00
2019-05-23T11:09:17.294Z,58.60
2019-05-23T11:11:53.474Z,57.40
2019-05-23T11:14:30.670Z,58.80
2019-05-23T11:17:07.770Z,58.50
2019-05-23T11:19:44.134Z,59.20
2019-05-23T11:22:20.861Z,57.50
2019-05-23T11:24:57.188Z,57.20
2019-05-23T11:27:34.025Z,55.20
2019-05-23T11:30:16.657Z,55.90
2019-05-23T11:32:52.019Z,57.90
2019-05-23T11:35:28.536Z,56.30
2019-05-23T11:38:04.969Z,54.00
2019-05-23T11:40:41.237Z,57.30
2019-05-23T11:43:17.493Z,58.30
2019-05-23T11:45:55.612Z,57.70
2019-05-23T11:48:33.250Z,57.00
2019-05-23T11:51:09.556Z,55.20
2019-05-23T11:54:05.466Z,55.40
2019-05-23T11:56:24.590Z,55.90
2019-05-23T11:59:02.081Z,57.30
2019-05-23T12:01:40.089Z,56.40
2019-05-23T12:04:18.180Z,57.50
2019-05-23T12:06:58.809Z,55.70
2019-05-23T12:09:35.242Z,56.60
2019-05-23T12:12:11.511Z,57.80
2019-05-23T12:14:47.962Z,58.40
2019-05-23T12:17:25.841Z,56.40
2019-05-23T12:20:02.099Z,56.70
2019-05-23T12:22:38.583Z,58.10
2019-05-23T12:25:22.747Z,56.80
2019-05-23T12:27:54.381Z,53.60
2019-05-23T12:30:30.882Z,54.60
2019-05-23T12:33:08.355Z,54.70
2019-05-23T12:35:44.787Z,55.80
2019-05-23T12:38:21.694Z,56.90
2019-05-23T12:41:03.027Z,58.60
2019-05-23T12:43:36.267Z,59.80
2019-05-23T12:46:13.064Z,58.70
2019-05-23T12:48:51.125Z,57.80
2019-05-23T12:51:29.309Z,56.10
2019-05-23T12:54:05.836Z,59.10
2019-05-23T12:56:42.282Z,57.80
2019-05-23T12:59:18.636Z,56.20
2019-05-23T13:01:59.708Z,58.30
2019-05-23T13:04:36.089Z,54.20
2019-05-23T13:07:12.324Z,55.10
2019-05-23T13:09:48.702Z,57.20
2019-05-23T13:12:34.142Z,55.90
2019-05-23T13:15:09.210Z,55.50
2019-05-23T13:17:47.127Z,53.40
2019-05-23T13:20:23.876Z,55.60
2019-05-23T13:23:03.419Z,54.60
2019-05-23T13:25:41.339Z,53.60
2019-05-23T13:28:19.567Z,54.70
2019-05-23T13:30:58.917Z,58.30
2019-05-23T13:33:39.614Z,60.20
2019-05-23T13:36:16.902Z,58.20
2019-05-23T13:38:53.403Z,58.00
2019-05-23T13:41:29.869Z,57.80
2019-05-23T13:44:06.387Z,57.80
2019-05-23T13:46:42.966Z,58.50
2019-05-23T13:49:23.475Z,58.60
2019-05-23T13:52:02.975Z,58.90
2019-05-23T13:54:43.422Z,56.70
2019-05-23T13:57:22.558Z,56.20
2019-05-23T14:00:03.172Z,56.90
2019-05-23T14:02:39.755Z,58.30
2019-05-23T14:05:19.087Z,59.20
2019-05-23T14:08:10.756Z,56.60
2019-05-23T14:10:33.295Z,56.40
2019-05-23T14:13:09.731Z,54.40
2019-05-23T14:15:51.019Z,55.50
2019-05-23T14:18:29.363Z,55.60
2019-05-23T14:21:05.984Z,58.60
2019-05-23T14:23:43.787Z,58.90
2019-05-23T14:26:34.336Z,60.50
2019-05-23T14:29:04.587Z,60.80
2019-05-23T14:36:04.236Z,59.90
2019-05-23T14:38:41.798Z,60.40
2019-05-23T14:41:18.116Z,61.50
2019-05-23T14:43:54.676Z,61.60
2019-05-23T14:46:32.595Z,61.60
2019-05-23T14:49:10.536Z,62.10
2019-05-23T14:51:48.544Z,62.00
2019-05-23T14:54:32.424Z,60.80
2019-05-23T14:57:08.868Z,59.50
2019-05-23T14:59:54.930Z,61.30
2019-05-23T15:02:39.405Z,62.40
2019-05-23T15:05:16.254Z,61.00
2019-05-23T15:07:52.993Z,63.00
2019-05-23T15:10:31.753Z,61.20
2019-05-23T15:13:08.903Z,62.00
2019-05-23T15:15:47.353Z,61.10
2019-05-23T15:18:23.478Z,62.40
2019-05-23T15:24:13.182Z,61.90
2019-05-23T15:26:52.936Z,63.10
2019-05-23T15:29:33.783Z,62.90
2019-05-23T15:32:18.262Z,63.00
2019-05-23T15:35:09.349Z,62.60
2019-05-23T15:37:59.863Z,62.00
2019-05-23T15:40:48.031Z,61.20
2019-05-23T15:43:34.446Z,61.10
2019-05-23T15:46:13.111Z,62.00
2019-05-23T15:48:52.715Z,61.80
2019-05-23T15:51:53.534Z,62.60
2019-05-23T15:54:29.191Z,62.80
2019-05-23T15:57:10.261Z,62.50
2019-05-23T16:00:01.369Z,63.70
2019-05-23T16:02:46.854Z,63.20
2019-05-23T16:05:41.060Z,63.30
2019-05-23T16:08:14.353Z,63.00
2019-05-23T16:10:52.567Z,63.00
2019-05-23T16:13:37.472Z,63.70
2019-05-23T16:16:10.459Z,63.70
2019-05-23T16:18:53.663Z,64.90
2019-05-23T16:21:33.863Z,65.20
2019-05-23T16:24:19.021Z,65.40
2019-05-23T16:26:56.129Z,63.80
2019-05-23T16:30:29.686Z,62.90
2019-05-23T16:33:06.005Z,63.10
2019-05-23T16:35:42.567Z,63.90
2019-05-23T16:38:19.024Z,63.40
2019-05-23T16:40:55.524Z,64.80
2019-05-23T16:43:31.882Z,65.70
2019-05-23T16:46:08.470Z,66.20
2019-05-23T16:48:45.463Z,65.80
2019-05-23T16:51:21.908Z,65.50
2019-05-23T16:53:58.453Z,65.50
2019-05-23T16:56:39.079Z,66.10
2019-05-23T16:59:22.975Z,67.00
2019-05-23T17:02:17.357Z,65.40
2019-05-23T17:05:09.845Z,66.60
2019-05-23T17:07:42.475Z,66.90
2019-05-23T17:10:24.085Z,67.60
2019-05-23T17:13:21.039Z,68.00
2019-05-23T17:16:03.255Z,68.00
2019-05-23T17:19:10.327Z,68.90
2019-05-23T17:22:04.260Z,68.20
2019-05-23T17:24:42.429Z,69.70
2019-05-23T17:27:26.550Z,69.90
2019-05-23T17:30:08.610Z,68.40
2019-05-23T17:32:45.524Z,67.80
2019-05-23T17:35:21.984Z,67.70
2019-05-23T17:37:59.097Z,67.90
2019-05-23T17:40:35.490Z,67.90
2019-05-23T17:43:11.823Z,68.20
2019-05-23T17:45:48.301Z,69.30
2019-05-23T17:48:24.547Z,70.00
2019-05-23T17:51:01.529Z,69.10
2019-05-23T17:53:37.833Z,69.00
2019-05-23T17:56:14.600Z,70.00
2019-05-23T17:58:51.070Z,70.90
2019-05-23T18:01:28.537Z,70.40
2019-05-23T18:04:05.476Z,70.80
2019-05-23T18:06:42.292Z,70.70
2019-05-23T18:09:19.323Z,70.40
2019-05-23T18:11:56.151Z,70.50
2019-05-23T18:14:32.892Z,70.60
2019-05-23T18:17:09.568Z,71.00
2019-05-23T18:19:50.949Z,71.30
2019-05-23T18:22:37.862Z,72.20
2019-05-23T18:25:33.861Z,72.80
2019-05-23T18:28:21.049Z,73.40
2019-05-23T18:31:14.867Z,74.20
2019-05-23T18:33:59.371Z,74.70
2019-05-23T18:36:40.064Z,75.10
2019-05-23T18:39:17.245Z,76.20
2019-05-23T18:41:57.855Z,76.90
2019-05-23T18:44:39.167Z,78.00
2019-05-23T18:47:17.769Z,78.20
2019-05-23T18:50:01.685Z,78.40
2019-05-23T18:53:01.021Z,79.00
2019-05-23T18:55:25.157Z,79.10
2019-05-23T18:58:05.833Z,79.40
2019-05-23T19:00:54.401Z,80.00
2019-05-23T19:03:40.817Z,80.20
2019-05-23T19:06:24.466Z,80.50
2019-05-23T19:09:07.997Z,80.90
2019-05-23T19:11:51.601Z,81.40
2019-05-23T19:14:27.943Z,81.90
2019-05-23T19:17:05.247Z,82.10
2019-05-23T19:19:42.005Z,81.90
2019-05-23T19:22:18.919Z,82.60
2019-05-23T19:24:55.689Z,82.60
2019-05-23T19:27:31.958Z,83.10
2019-05-23T19:30:09.101Z,83.10
2019-05-23T19:32:45.573Z,83.00
2019-05-23T19:35:22.275Z,82.90
2019-05-23T19:37:58.523Z,83.20
2019-05-23T19:40:35.387Z,83.20
2019-05-23T19:43:13.096Z,83.80
2019-05-23T19:45:49.861Z,83.80
2019-05-23T19:48:26.828Z,83.80
2019-05-23T19:51:03.642Z,83.70
2019-05-23T19:53:39.938Z,83.80
2019-05-23T19:56:16.835Z,83.70
2019-05-23T19:58:53.033Z,83.70
2019-05-23T20:01:32.325Z,83.80
2019-05-23T20:04:09.136Z,83.60
2019-05-23T20:06:45.872Z,83.60
2019-05-23T20:09:23.777Z,83.60
2019-05-23T20:12:00.045Z,83.60
2019-05-23T20:14:36.466Z,83.40
2019-05-23T20:17:14.189Z,83.50
2019-05-23T20:19:50.798Z,83.80
2019-05-23T20:22:27.450Z,84.00
2019-05-23T20:25:04.633Z,84.30
2019-05-23T20:27:40.929Z,84.30
2019-05-23T20:30:39.488Z,84.60
2019-05-23T20:33:16.057Z,84.90
2019-05-23T20:35:52.616Z,85.00
2019-05-23T20:38:29.175Z,85.00
2019-05-23T20:41:05.419Z,85.80
2019-05-23T20:43:41.807Z,85.90
2019-05-23T20:46:18.596Z,85.70
2019-05-23T20:48:54.842Z,85.70
2019-05-23T20:51:31.340Z,85.50
2019-05-23T20:54:07.632Z,85.30
2019-05-23T20:56:43.986Z,85.10
2019-05-23T20:59:20.448Z,84.30
2019-05-23T21:01:56.751Z,84.00
2019-05-23T21:04:33.163Z,83.70
2019-05-23T21:07:09.532Z,84.10
2019-05-23T21:09:45.804Z,84.40
2019-05-23T21:12:30.111Z,84.70
2019-05-23T21:15:00.307Z,84.80
2019-05-23T21:17:36.763Z,86.40
2019-05-23T21:20:13.244Z,86.90
2019-05-23T21:22:50.045Z,87.40
2019-05-23T21:25:27.005Z,87.90
2019-05-23T21:28:03.243Z,87.80
2019-05-23T21:30:39.453Z,88.00
2019-05-23T21:33:15.669Z,87.80
2019-05-23T21:35:52.119Z,88.20
2019-05-23T21:38:28.479Z,88.00
2019-05-23T21:41:04.693Z,88.20
2019-05-23T21:43:41.717Z,88.10
2019-05-23T21:46:18.105Z,87.80
2019-05-23T21:48:54.356Z,87.90
2019-05-23T21:51:30.716Z,87.70
2019-05-23T21:54:06.916Z,87.90
2019-05-23T21:56:43.156Z,87.80
2019-05-23T21:59:19.348Z,87.80
2019-05-23T22:02:00.043Z,88.20
2019-05-23T22:04:37.972Z,88.40
2019-05-23T22:07:14.128Z,88.50
2019-05-23T22:09:50.315Z,88.70
2019-05-23T22:12:26.620Z,88.50
2019-05-23T22:15:03.166Z,88.60
2019-05-23T22:17:39.659Z,88.50
2019-05-23T22:20:16.009Z,88.50
2019-05-23T22:22:52.442Z,88.70
2019-05-23T22:25:33.143Z,88.70
2019-05-23T22:28:09.446Z,88.70
2019-05-23T22:30:45.860Z,88.80
2019-05-23T22:33:40.055Z,89.00
2019-05-23T22:36:17.914Z,88.70
2019-05-23T22:38:54.171Z,88.80
2019-05-23T22:41:30.333Z,88.50
2019-05-23T22:44:08.465Z,88.70
2019-05-23T22:46:45.076Z,88.70
2019-05-23T22:49:21.398Z,89.00
2019-05-23T22:51:57.735Z,88.90
2019-05-23T22:54:33.919Z,89.10
2019-05-23T22:57:10.230Z,89.10
2019-05-23T22:59:46.338Z,89.60
2019-05-23T23:02:22.708Z,89.70
2019-05-23T23:04:58.933Z,89.60
2019-05-23T23:07:35.379Z,89.70
2019-05-23T23:10:11.675Z,89.80
2019-05-23T23:12:48.061Z,89.80
2019-05-23T23:15:25.065Z,89.80
2019-05-23T23:18:01.458Z,90.20
2019-05-23T23:20:37.756Z,89.80
2019-05-23T23:23:14.007Z,90.20
2019-05-23T23:25:50.299Z,90.20
2019-05-23T23:28:26.767Z,90.20
2019-05-23T23:31:03.305Z,90.20
2019-05-23T23:33:39.459Z,90.00
2019-05-23T23:36:15.756Z,89.90
2019-05-23T23:38:52.033Z,89.80
2019-05-23T23:41:28.281Z,90.00
2019-05-23T23:44:05.274Z,90.20
2019-05-23T23:46:59.630Z,90.30
2019-05-23T23:49:53.802Z,90.60
2019-05-23T23:52:48.227Z,90.50
2019-05-23T23:55:42.323Z,90.90
2019-05-23T23:58:17.900Z,91.00
